Time;durP1;ratioP1;P1;durP2;ratioP2;P2;SDS_P1;SDS_P2;PMS_P1;PMS_P2;Temp;Humidity;BMP_temperature;BMP_pressure;BME280_temperature;BME280_humidity;BME280_pressure;Samples;Min_cycle;Max_cycle;Signal;HPM_P1;HPM_P2
2022/07/10 00:02:13;;;;;;;;;;;;;;;14.25;95.04;102848.31;4992236;28;19913;-59
2022/07/10 00:04:38;;;;;;;;;;;;;;;14.27;95.07;102842.91;4992356;28;19941;-60
2022/07/10 00:07:03;;;;;;;;;;;;;;;14.29;95.24;102842.91;4992229;28;19924;-59
2022/07/10 00:09:29;;;;;;;;;;;;;;;14.27;95.02;102853.59;4992091;28;19925;-59
2022/07/10 00:11:54;;;;;;;;;;;;;;;14.28;95.36;102851.81;4992343;28;19961;-59
2022/07/10 00:14:20;;;;;;;;;;;;;;;14.29;95.27;102837.56;4992246;28;19956;-58
2022/07/10 00:16:45;;;;;;;;;;;;;;;14.28;95.10;102847.34;4991118;28;19960;-57
2022/07/10 00:19:10;;;;;;;;;;;;;;;14.26;95.31;102851.84;4992046;28;20356;-59
2022/07/10 00:21:36;;;;;;;;;;;;;;;14.22;95.37;102835.06;4991904;28;19925;-59
2022/07/10 00:24:02;;;;;;;;;;;;;;;14.20;95.90;102842.22;4992193;28;19913;-59
2022/07/10 00:26:27;;;;;;;;;;;;;;;14.17;96.02;102831.66;4992163;28;19913;-59
2022/07/10 00:28:53;;;;;;;;;;;;;;;14.14;96.47;102842.41;4992236;28;19914;-59
2022/07/10 00:31:18;;;;;;;;;;;;;;;14.12;96.52;102835.38;4992328;28;19913;-59
2022/07/10 00:33:43;;;;;;;;;;;;;;;14.09;96.56;102834.56;4990653;28;19917;-59
2022/07/10 00:36:09;;;;;;;;;;;;;;;14.09;96.84;102839.00;4992554;28;19914;-60
2022/07/10 00:38:34;;;;;;;;;;;;;;;14.11;96.77;102826.50;4991958;28;20000;-59
2022/07/10 00:40:59;;;;;;;;;;;;;;;14.12;96.44;102822.94;4992061;28;19968;-58
2022/07/10 00:43:24;;;;;;;;;;;;;;;14.08;96.44;102816.81;4992124;28;19957;-60
2022/07/10 00:45:50;;;;;;;;;;;;;;;14.06;96.74;102817.78;4992162;28;19914;-58
2022/07/10 00:48:15;;;;;;;;;;;;;;;14.04;97.09;102816.94;4990772;28;19918;-59
2022/07/10 00:50:42;;;;;;;;;;;;;;;14.02;97.45;102824.09;4991979;28;20433;-58
2022/07/10 00:53:07;;;;;;;;;;;;;;;13.99;97.61;102826.84;4993843;28;19909;-58
2022/07/10 00:55:35;;;;;;;;;;;;;;;13.95;97.99;102820.72;4995385;28;19916;-60
2022/07/10 00:58:01;;;;;;;;;;;;;;;13.95;98.02;102822.53;4995516;28;19910;-59
2022/07/10 01:00:27;;;;;;;;;;;;;;;13.95;98.04;102811.88;4995432;28;19921;-60
2022/07/10 01:02:52;;;;;;;;;;;;;;;13.95;98.30;102819.84;4994190;28;20012;-59
2022/07/10 01:05:17;;;;;;;;;;;;;;;13.96;98.24;102821.59;4994935;28;19910;-59
2022/07/10 01:07:43;;;;;;;;;;;;;;;13.93;98.43;102818.09;4995246;28;19916;-58
2022/07/10 01:10:09;;;;;;;;;;;;;;;13.92;98.79;102813.69;4994939;28;19917;-59
2022/07/10 01:12:36;;;;;;;;;;;;;;;13.92;98.81;102815.47;4994969;28;20391;-59
2022/07/10 01:15:01;;;;;;;;;;;;;;;13.92;99.06;102818.16;4995126;28;19925;-59
2022/07/10 01:17:28;;;;;;;;;;;;;;;13.91;98.96;102811.06;4977564;28;20016;-58
2022/07/10 01:19:54;;;;;;;;;;;;;;;13.90;98.98;102819.97;4994949;28;20425;-60
2022/07/10 01:22:19;;;;;;;;;;;;;;;13.87;99.32;102804.94;4995139;28;19999;-59
2022/07/10 01:24:44;;;;;;;;;;;;;;;13.88;99.47;102803.19;4994723;28;20387;-59
2022/07/10 01:27:09;;;;;;;;;;;;;;;13.86;99.51;102799.66;4994885;28;20293;-58
2022/07/10 01:29:35;;;;;;;;;;;;;;;13.86;99.11;102789.91;5009662;28;19910;-59
2022/07/10 01:32:01;;;;;;;;;;;;;;;13.89;99.04;102787.16;4994613;28;19913;-58
2022/07/10 01:34:27;;;;;;;;;;;;;;;13.90;98.86;102804.00;4994731;28;19961;-60
2022/07/10 01:36:52;;;;;;;;;;;;;;;13.90;98.81;102796.88;4995160;28;19914;-59
2022/07/10 01:39:18;;;;;;;;;;;;;;;13.88;98.90;102793.38;4994476;28;19917;-59
2022/07/10 01:41:43;;;;;;;;;;;;;;;13.86;98.98;102773.94;4994574;28;20354;-59
2022/07/10 01:44:08;;;;;;;;;;;;;;;13.85;99.27;102777.50;4994506;28;19968;-59
2022/07/10 01:46:33;;;;;;;;;;;;;;;13.86;99.37;102789.00;4994436;28;19914;-60
2022/07/10 01:48:59;;;;;;;;;;;;;;;13.84;99.67;102786.41;4994463;28;20369;-58
2022/07/10 01:51:24;;;;;;;;;;;;;;;13.84;99.60;102789.06;4994493;28;20365;-59
2022/07/10 01:53:49;;;;;;;;;;;;;;;13.81;100.00;102789.16;4994416;28;20295;-58
2022/07/10 01:56:15;;;;;;;;;;;;;;;13.80;100.00;102787.41;4993183;28;19913;-59
2022/07/10 01:58:40;;;;;;;;;;;;;;;13.80;100.00;102792.72;4993307;28;19967;-59
2022/07/10 02:01:06;;;;;;;;;;;;;;;13.79;100.00;102783.00;4994234;28;20385;-59
2022/07/10 02:06:16;;;;;;;;;;;;;;;13.77;100.00;102784.81;4994447;28;19964;-58
2022/07/10 02:08:41;;;;;;;;;;;;;;;13.74;100.00;102791.09;4994347;28;19910;-60
2022/07/10 02:11:07;;;;;;;;;;;;;;;13.72;100.00;102795.59;4993713;28;20304;-60
2022/07/10 02:13:32;;;;;;;;;;;;;;;13.68;100.00;102790.38;4993838;28;20015;-59
2022/07/10 02:15:57;;;;;;;;;;;;;;;13.66;100.00;102789.53;4994044;28;19914;-60
2022/07/10 02:18:22;;;;;;;;;;;;;;;13.67;100.00;102781.53;5008765;28;20319;-59
2022/07/10 02:20:48;;;;;;;;;;;;;;;13.72;100.00;102776.97;4993779;28;19968;-59
2022/07/10 02:23:13;;;;;;;;;;;;;;;13.80;100.00;102771.44;4993695;28;19914;-59
2022/07/10 02:25:39;;;;;;;;;;;;;;;13.81;100.00;102766.97;4993780;28;19937;-59
2022/07/10 02:28:04;;;;;;;;;;;;;;;13.82;100.00;102772.25;4992278;28;19960;-59
2022/07/10 02:30:29;;;;;;;;;;;;;;;13.90;100.00;102774.69;4993710;28;19954;-60
2022/07/10 02:32:54;;;;;;;;;;;;;;;13.95;100.00;102782.56;4993540;28;20000;-58
2022/07/10 02:35:20;;;;;;;;;;;;;;;14.00;100.00;102785.97;4993356;28;19917;-58
2022/07/10 02:37:45;;;;;;;;;;;;;;;13.97;100.00;102788.72;5008708;28;19910;-59
2022/07/10 02:40:10;;;;;;;;;;;;;;;13.90;100.00;102796.00;4993379;28;19983;-59
2022/07/10 02:42:36;;;;;;;;;;;;;;;13.85;100.00;102788.16;4993318;28;19914;-60
2022/07/10 02:45:01;;;;;;;;;;;;;;;13.77;100.00;102788.38;4993604;28;19910;-59
2022/07/10 02:47:26;;;;;;;;;;;;;;;13.75;100.00;102789.31;4993211;28;19920;-59
2022/07/10 02:49:51;;;;;;;;;;;;;;;13.72;100.00;102782.28;4993367;28;19917;-58
2022/07/10 02:52:17;;;;;;;;;;;;;;;13.76;100.00;102791.94;4993261;28;20376;-59
2022/07/10 02:54:42;;;;;;;;;;;;;;;13.79;100.00;102788.31;4993452;28;19960;-58
2022/07/10 02:57:07;;;;;;;;;;;;;;;13.86;100.00;102789.00;4993272;28;19913;-59
2022/07/10 02:59:33;;;;;;;;;;;;;;;13.90;100.00;102780.03;5008093;28;19933;-60
2022/07/10 03:01:58;;;;;;;;;;;;;;;13.98;100.00;102779.81;4992067;28;19964;-59
2022/07/10 03:04:23;;;;;;;;;;;;;;;14.05;100.00;102773.41;4992996;28;20343;-59
2022/07/10 03:06:48;;;;;;;;;;;;;;;14.10;100.00;102779.47;4993171;28;20483;-59
2022/07/10 03:09:14;;;;;;;;;;;;;;;14.14;100.00;102773.13;4992745;28;19922;-59
2022/07/10 03:11:39;;;;;;;;;;;;;;;14.20;100.00;102762.28;4992744;28;20441;-60
2022/07/10 03:14:05;;;;;;;;;;;;;;;14.26;100.00;102761.25;5008065;28;20420;-58
2022/07/10 03:16:31;;;;;;;;;;;;;;;14.31;100.00;102758.44;4992447;28;20004;-58
2022/07/10 03:18:56;;;;;;;;;;;;;;;14.36;100.00;102756.50;4992834;28;19949;-58
2022/07/10 03:21:21;;;;;;;;;;;;;;;14.40;100.00;102753.72;4992656;28;19925;-59
2022/07/10 03:23:46;;;;;;;;;;;;;;;14.46;100.00;102757.97;4991358;28;19920;-59
2022/07/10 03:26:12;;;;;;;;;;;;;;;14.50;100.00;102758.75;4992672;28;19914;-59
2022/07/10 03:28:37;;;;;;;;;;;;;;;14.51;100.00;102753.38;4992610;28;19913;-59
2022/07/10 03:31:02;;;;;;;;;;;;;;;14.55;100.00;102751.47;4992688;28;20008;-59
2022/07/10 03:33:28;;;;;;;;;;;;;;;14.59;100.00;102756.69;4992711;28;20005;-60
2022/07/10 03:35:53;;;;;;;;;;;;;;;14.61;100.00;102745.97;4992677;28;19979;-60
2022/07/10 03:38:19;;;;;;;;;;;;;;;14.63;100.00;102749.47;4992494;28;19956;-58
2022/07/10 03:40:47;;;;;;;;;;;;;;;14.68;100.00;102752.00;4991306;28;19914;-57
2022/07/10 03:43:12;;;;;;;;;;;;;;;14.72;100.00;102743.88;4992530;28;19914;-58
2022/07/10 03:45:38;;;;;;;;;;;;;;;14.77;100.00;102740.19;4992445;28;20348;-59
2022/07/10 03:48:03;;;;;;;;;;;;;;;14.78;100.00;102756.13;4992764;28;19922;-59
2022/07/10 03:50:28;;;;;;;;;;;;;;;14.79;100.00;102755.22;4992484;28;19910;-57
2022/07/10 03:52:53;;;;;;;;;;;;;;;14.80;100.00;102740.09;4992584;28;20072;-59
2022/07/10 03:55:19;;;;;;;;;;;;;;;14.83;100.00;102746.19;4992372;28;19921;-59
2022/07/10 03:57:53;;;;;;;;;;;;;;;14.89;100.00;102737.97;4991463;28;19914;-58
2022/07/10 04:00:18;;;;;;;;;;;;;;;14.98;100.00;102739.47;4992498;28;19921;-58
2022/07/10 04:02:43;;;;;;;;;;;;;;;15.03;100.00;102737.53;4992482;28;20492;-58
2022/07/10 04:05:09;;;;;;;;;;;;;;;15.09;100.00;102741.81;4992497;28;19922;-58
2022/07/10 04:07:35;;;;;;;;;;;;;;;15.11;100.00;102742.59;4991312;28;19920;-58
2022/07/10 04:10:00;;;;;;;;;;;;;;;15.18;100.00;102744.16;4992234;28;19922;-59
2022/07/10 04:12:26;;;;;;;;;;;;;;;15.24;100.00;102740.38;4992146;28;19916;-59
2022/07/10 04:14:51;;;;;;;;;;;;;;;15.27;100.00;102737.63;4992253;28;19956;-60
2022/07/10 04:17:19;;;;;;;;;;;;;;;15.34;100.00;102730.28;4992170;28;19914;-59
2022/07/10 04:19:45;;;;;;;;;;;;;;;15.39;100.00;102731.00;4991944;28;20279;-59
2022/07/10 04:22:11;;;;;;;;;;;;;;;15.36;99.98;102734.63;4992244;28;20323;-58
2022/07/10 04:24:36;;;;;;;;;;;;;;;15.38;100.00;102740.81;4992265;28;19967;-59
2022/07/10 04:27:01;;;;;;;;;;;;;;;15.44;99.91;102741.53;4992281;28;20647;-59
2022/07/10 04:29:27;;;;;;;;;;;;;;;15.47;99.73;102728.91;5011076;28;19917;-59
2022/07/10 04:31:52;;;;;;;;;;;;;;;15.43;99.09;102740.63;4995668;28;19914;-59
2022/07/10 04:34:17;;;;;;;;;;;;;;;15.42;99.61;102740.69;4995743;28;19913;-59
2022/07/10 04:36:42;;;;;;;;;;;;;;;15.43;99.81;102739.78;4995856;28;19949;-59
2022/07/10 04:39:08;;;;;;;;;;;;;;;15.45;99.97;102740.56;4994344;28;19909;-58
2022/07/10 04:41:33;;;;;;;;;;;;;;;15.48;99.86;102740.47;4995741;28;19914;-58
2022/07/10 04:43:58;;;;;;;;;;;;;;;15.49;100.00;102739.56;4995567;28;19911;-58
2022/07/10 04:46:24;;;;;;;;;;;;;;;15.51;100.00;102759.94;4995428;28;19918;-59
2022/07/10 04:48:50;;;;;;;;;;;;;;;15.52;99.71;102761.66;4995680;28;19952;-59
2022/07/10 04:51:15;;;;;;;;;;;;;;;15.53;100.00;102765.22;4995484;28;19913;-59
2022/07/10 04:53:40;;;;;;;;;;;;;;;15.56;100.00;102747.31;4995395;28;20441;-59
2022/07/10 04:56:06;;;;;;;;;;;;;;;15.65;100.00;102756.78;4978213;28;19917;-60
2022/07/10 04:58:31;;;;;;;;;;;;;;;15.73;100.00;102746.69;4995846;28;19917;-59
2022/07/10 05:00:56;;;;;;;;;;;;;;;15.82;99.48;102752.63;4995697;28;20016;-59
2022/07/10 05:03:21;;;;;;;;;;;;;;;15.82;98.94;102757.97;4995108;28;20357;-59
2022/07/10 05:05:47;;;;;;;;;;;;;;;15.78;99.16;102759.00;4995330;28;19921;-58
2022/07/10 05:08:12;;;;;;;;;;;;;;;15.80;99.43;102757.16;4995272;28;19914;-59
2022/07/10 05:10:37;;;;;;;;;;;;;;;15.85;99.55;102750.72;4993874;28;19929;-59
2022/07/10 05:13:02;;;;;;;;;;;;;;;15.93;99.92;102755.78;4995215;28;19914;-59
2022/07/10 05:15:27;;;;;;;;;;;;;;;16.02;99.78;102754.59;4994965;28;19914;-59
2022/07/10 05:17:53;;;;;;;;;;;;;;;16.05;98.83;102754.50;4995137;28;19960;-59
2022/07/10 05:20:18;;;;;;;;;;;;;;;16.07;99.39;102765.97;4994992;28;19922;-59
2022/07/10 05:22:43;;;;;;;;;;;;;;;16.08;98.79;102757.03;4994738;28;19913;-59
2022/07/10 05:25:08;;;;;;;;;;;;;;;16.14;99.16;102755.91;4993798;28;19914;-59
2022/07/10 05:27:34;;;;;;;;;;;;;;;16.20;98.77;102745.88;4994704;28;19920;-59
2022/07/10 05:29:59;;;;;;;;;;;;;;;16.28;98.65;102747.38;4994782;28;20083;-59
2022/07/10 05:32:25;;;;;;;;;;;;;;;16.37;98.04;102752.38;4994528;28;19957;-60
2022/07/10 05:34:50;;;;;;;;;;;;;;;16.38;97.64;102746.97;4994780;28;19918;-59
2022/07/10 05:37:15;;;;;;;;;;;;;;;16.43;97.45;102748.59;4994836;28;19916;-59
2022/07/10 05:39:41;;;;;;;;;;;;;;;16.53;97.15;102755.31;4994197;28;19914;-59
2022/07/10 05:42:06;;;;;;;;;;;;;;;16.76;95.82;102743.69;4993372;28;19968;-60
2022/07/10 05:44:31;;;;;;;;;;;;;;;16.82;95.57;102748.78;4994593;28;19917;-59
2022/07/10 05:46:57;;;;;;;;;;;;;;;16.91;95.11;102744.91;4994360;28;20004;-59
2022/07/10 05:49:22;;;;;;;;;;;;;;;17.09;94.77;102745.09;4994293;28;19914;-59
2022/07/10 05:51:47;;;;;;;;;;;;;;;17.20;94.51;102735.66;4993352;28;19921;-59
2022/07/10 05:54:12;;;;;;;;;;;;;;;17.22;93.90;102745.44;4994265;28;19917;-60
2022/07/10 05:56:38;;;;;;;;;;;;;;;17.19;92.58;102751.78;4994297;28;19920;-58
2022/07/10 05:59:03;;;;;;;;;;;;;;;17.19;92.80;102749.13;4994214;28;20300;-59
2022/07/10 06:01:28;;;;;;;;;;;;;;;17.18;94.38;102742.00;4993932;28;20031;-59
2022/07/10 06:03:53;;;;;;;;;;;;;;;17.24;93.00;102741.75;4994137;28;19917;-58
2022/07/10 06:06:18;;;;;;;;;;;;;;;17.30;92.93;102740.63;4994224;28;19914;-59
2022/07/10 06:08:44;;;;;;;;;;;;;;;17.27;92.46;102733.59;4992837;28;19960;-60
2022/07/10 06:11:10;;;;;;;;;;;;;;;17.40;93.34;102733.06;4994148;28;19980;-58
2022/07/10 06:13:35;;;;;;;;;;;;;;;17.41;91.37;102729.44;4993964;28;19937;-58
2022/07/10 06:16:01;;;;;;;;;;;;;;;17.45;90.77;102736.41;4993942;28;19910;-60
2022/07/10 06:18:26;;;;;;;;;;;;;;;17.35;91.71;102741.28;5008855;28;19913;-58
2022/07/10 06:20:51;;;;;;;;;;;;;;;17.48;92.59;102745.19;4993994;28;20016;-60
2022/07/10 06:23:17;;;;;;;;;;;;;;;17.62;91.41;102743.69;4992640;28;19949;-59
2022/07/10 06:25:42;;;;;;;;;;;;;;;17.73;91.56;102736.03;4992763;28;20296;-59
2022/07/10 06:28:07;;;;;;;;;;;;;;;17.85;90.05;102740.88;5008721;28;19910;-59
2022/07/10 06:30:32;;;;;;;;;;;;;;;17.75;90.20;102741.31;4993614;28;19924;-60
2022/07/10 06:32:58;;;;;;;;;;;;;;;17.74;89.52;102739.63;4993581;28;19952;-58
2022/07/10 06:35:23;;;;;;;;;;;;;;;17.73;90.06;102745.91;4993378;28;20340;-61
2022/07/10 06:37:48;;;;;;;;;;;;;;;17.80;89.87;102745.56;4993468;28;20306;-59
2022/07/10 06:40:16;;;;;;;;;;;;;;;17.78;90.12;102735.84;4992192;28;19917;-59
2022/07/10 06:42:41;;;;;;;;;;;;;;;17.89;89.51;102746.06;4992336;28;19913;-58
2022/07/10 06:45:07;;;;;;;;;;;;;;;17.97;90.63;102744.81;4993322;28;19921;-59
2022/07/10 06:50:16;;;;;;;;;;;;;;;18.18;87.61;102744.75;4992892;28;20273;-60
2022/07/10 06:52:42;;;;;;;;;;;;;;;18.14;87.61;102748.53;4993256;28;19910;-59
2022/07/10 06:55:07;;;;;;;;;;;;;;;18.23;87.01;102739.19;4993196;28;20362;-59
2022/07/10 06:57:33;;;;;;;;;;;;;;;18.45;87.75;102744.41;4991735;28;19914;-59
2022/07/10 06:59:58;;;;;;;;;;;;;;;18.40;88.33;102746.44;4993224;28;19972;-59
2022/07/10 07:02:23;;;;;;;;;;;;;;;18.32;86.70;102742.28;4992983;28;19913;-58
2022/07/10 07:04:49;;;;;;;;;;;;;;;18.44;85.64;102753.38;4991672;28;20258;-59
2022/07/10 07:07:14;;;;;;;;;;;;;;;18.64;85.34;102755.09;4993233;28;19932;-58
2022/07/10 07:09:40;;;;;;;;;;;;;;;18.93;84.52;102747.47;4992778;28;19928;-58
2022/07/10 07:12:06;;;;;;;;;;;;;;;19.03;84.25;102750.56;4993024;28;19945;-59
2022/07/10 07:14:31;;;;;;;;;;;;;;;19.08;84.70;102754.75;4993021;28;19972;-58
2022/07/10 07:17:05;;;;;;;;;;;;;;;19.05;84.42;102752.22;4992937;28;20357;-59
2022/07/10 07:19:31;;;;;;;;;;;;;;;19.10;86.12;102755.53;4992789;28;20288;-60
2022/07/10 07:24:42;;;;;;;;;;;;;;;19.16;82.44;102754.38;4993099;28;20365;-59
2022/07/10 07:27:08;;;;;;;;;;;;;;;19.05;83.87;102762.09;4991563;28;20397;-59
2022/07/10 07:29:33;;;;;;;;;;;;;;;18.74;84.57;102759.09;4992619;28;19918;-59
2022/07/10 07:31:58;;;;;;;;;;;;;;;18.79;83.80;102761.56;4992714;28;20321;-59
2022/07/10 07:34:24;;;;;;;;;;;;;;;18.90;85.09;102761.94;4992545;28;20280;-59
2022/07/10 07:36:49;;;;;;;;;;;;;;;19.05;82.80;102752.22;4992602;28;19914;-60
2022/07/10 07:39:14;;;;;;;;;;;;;;;18.89;83.28;102756.56;4992563;28;19909;-59
2022/07/10 07:41:40;;;;;;;;;;;;;;;18.74;84.42;102758.22;4992316;28;20375;-57
2022/07/10 07:44:05;;;;;;;;;;;;;;;18.76;84.80;102743.78;4992533;28;20400;-59
2022/07/10 07:46:30;;;;;;;;;;;;;;;18.98;84.05;102751.66;4992378;28;19917;-59
2022/07/10 07:48:57;;;;;;;;;;;;;;;19.17;84.24;102764.19;4992568;28;20280;-59
2022/07/10 07:51:22;;;;;;;;;;;;;;;19.16;82.74;102762.44;4991216;28;19913;-60
2022/07/10 07:53:47;;;;;;;;;;;;;;;18.91;84.55;102770.84;4992219;28;19917;-60
2022/07/10 07:56:12;;;;;;;;;;;;;;;18.83;84.41;102774.72;4992622;28;19914;-59
2022/07/10 07:58:38;;;;;;;;;;;;;;;18.85;84.95;102761.25;4992313;28;19917;-59
2022/07/10 08:01:03;;;;;;;;;;;;;;;18.97;86.47;102757.97;4991450;28;19928;-59
2022/07/10 08:03:28;;;;;;;;;;;;;;;19.24;83.53;102770.09;4996272;28;20318;-60
2022/07/10 08:05:53;;;;;;;;;;;;;;;19.35;83.04;102770.41;4996231;28;19913;-59
2022/07/10 08:08:19;;;;;;;;;;;;;;;19.41;82.97;102763.84;4996399;28;19913;-58
2022/07/10 08:10:44;;;;;;;;;;;;;;;19.66;80.15;102766.13;4996186;28;19921;-58
2022/07/10 08:13:09;;;;;;;;;;;;;;;19.86;80.43;102765.09;4996349;28;20373;-60
2022/07/10 08:15:34;;;;;;;;;;;;;;;19.95;79.81;102761.06;5011156;28;20300;-58
2022/07/10 08:18:00;;;;;;;;;;;;;;;20.22;77.43;102758.66;4996233;28;19924;-59
2022/07/10 08:20:26;;;;;;;;;;;;;;;20.29;77.34;102746.63;4996012;28;20376;-60
2022/07/10 08:22:53;;;;;;;;;;;;;;;20.54;76.63;102749.75;4994882;28;19909;-59
2022/07/10 08:25:19;;;;;;;;;;;;;;;20.70;76.53;102752.41;4996046;28;19917;-59
2022/07/10 08:27:44;;;;;;;;;;;;;;;21.03;75.26;102748.75;4996075;28;19909;-58
2022/07/10 08:30:09;;;;;;;;;;;;;;;20.95;74.51;102746.50;4995929;28;20289;-58
2022/07/10 08:32:36;;;;;;;;;;;;;;;20.88;74.35;102753.19;4995712;28;19913;-58
2022/07/10 08:35:01;;;;;;;;;;;;;;;20.98;73.72;102762.47;4995893;28;20049;-58
2022/07/10 08:37:27;;;;;;;;;;;;;;;20.98;74.53;102758.94;4995700;28;20375;-58
2022/07/10 08:39:52;;;;;;;;;;;;;;;21.11;72.67;102765.31;4995482;28;20365;-59
2022/07/10 08:42:17;;;;;;;;;;;;;;;20.98;73.43;102759.78;5010733;28;19994;-60
2022/07/10 08:44:43;;;;;;;;;;;;;;;20.58;74.79;102752.16;4995766;28;19910;-60
2022/07/10 08:47:08;;;;;;;;;;;;;;;20.52;74.88;102757.88;4995548;28;19913;-59
2022/07/10 08:49:35;;;;;;;;;;;;;;;20.50;75.39;102751.75;4996017;28;20403;-59
2022/07/10 08:52:05;;;;;;;;;;;;;;;20.67;73.67;102750.78;4995342;28;19984;-59
2022/07/10 08:54:31;;;;;;;;;;;;;;;20.58;75.01;102752.16;4995233;28;19922;-58
2022/07/10 08:56:57;;;;;;;;;;;;;;;20.81;74.27;102758.09;4995427;28;19917;-58
2022/07/10 08:59:22;;;;;;;;;;;;;;;20.98;73.86;102748.16;4994073;28;19921;-63
2022/07/10 09:01:48;;;;;;;;;;;;;;;20.99;73.05;102752.59;4995352;28;19914;-59
2022/07/10 09:04:20;;;;;;;;;;;;;;;20.49;74.83;102747.31;4994048;28;20361;-60
2022/07/10 09:06:45;;;;;;;;;;;;;;;20.36;76.63;102743.56;5010275;28;19909;-60
2022/07/10 09:09:11;;;;;;;;;;;;;;;20.74;74.74;102737.84;4994840;28;19926;-59
2022/07/10 09:11:40;;;;;;;;;;;;;;;20.71;74.58;102740.72;4995220;28;19910;-60
2022/07/10 09:14:10;;;;;;;;;;;;;;;20.98;73.77;102738.25;4994500;28;19909;-60
2022/07/10 09:16:36;;;;;;;;;;;;;;;21.14;72.35;102735.50;4994857;28;19956;-59
2022/07/10 09:19:17;;;;;;;;;;;;;;;21.22;72.84;102738.59;4995139;28;19918;-59
2022/07/10 09:21:42;;;;;;;;;;;;;;;21.24;70.68;102741.19;5010307;28;19925;-59
2022/07/10 09:24:08;;;;;;;;;;;;;;;20.75;73.84;102728.81;5010127;28;19910;-60
2022/07/10 09:26:33;;;;;;;;;;;;;;;21.04;72.77;102735.19;4994855;28;19913;-59
2022/07/10 09:29:06;;;;;;;;;;;;;;;21.09;71.21;102729.53;4994945;28;20349;-59
2022/07/10 09:31:49;;;;;;;;;;;;;;;21.15;73.56;102734.56;4994733;28;20265;-59
2022/07/10 09:34:14;;;;;;;;;;;;;;;21.37;72.87;102726.03;4994966;28;19909;-60
2022/07/10 09:36:39;;;;;;;;;;;;;;;21.48;69.64;102738.00;5009384;28;19960;-60
2022/07/10 09:39:05;;;;;;;;;;;;;;;21.28;72.85;102732.00;4994723;28;19914;-59
2022/07/10 09:41:30;;;;;;;;;;;;;;;21.23;68.23;102732.25;4994297;28;19918;-58
2022/07/10 09:43:56;;;;;;;;;;;;;;;21.16;68.75;102738.13;4994623;28;20376;-59
2022/07/10 09:46:22;;;;;;;;;;;;;;;21.16;69.55;102733.56;5009412;28;20351;-60
2022/07/10 09:48:48;;;;;;;;;;;;;;;21.29;68.64;102731.00;4994759;28;19910;-60
2022/07/10 09:51:13;;;;;;;;;;;;;;;21.77;65.37;102728.13;5009725;28;19932;-60
2022/07/10 09:53:40;;;;;;;;;;;;;;;22.23;61.40;102730.59;4994260;28;19952;-59
2022/07/10 09:56:07;;;;;;;;;;;;;;;22.44;59.62;102721.22;4994326;28;19909;-58
2022/07/10 09:58:35;;;;;;;;;;;;;;;22.84;58.27;102724.84;4994275;28;19979;-61
2022/07/10 10:01:01;;;;;;;;;;;;;;;23.04;55.49;102731.63;4993861;28;19925;-59
2022/07/10 10:03:27;;;;;;;;;;;;;;;23.56;54.65;102731.69;4994229;28;19914;-59
2022/07/10 10:05:58;;;;;;;;;;;;;;;23.47;53.43;102735.06;4994132;28;19996;-59
2022/07/10 10:08:32;;;;;;;;;;;;;;;23.12;54.83;102714.88;4994092;28;19956;-59
2022/07/10 10:10:58;;;;;;;;;;;;;;;23.40;55.52;102721.97;4993854;28;19938;-59
2022/07/10 10:13:27;;;;;;;;;;;;;;;24.04;51.98;102712.06;4994119;28;19910;-59
2022/07/10 10:15:52;;;;;;;;;;;;;;;24.37;54.98;102706.03;4993691;28;19957;-59
2022/07/10 10:18:19;;;;;;;;;;;;;;;24.30;50.34;102703.91;4994115;28;19952;-59
2022/07/10 10:20:45;;;;;;;;;;;;;;;23.95;51.96;102707.34;4993910;28;19918;-59
2022/07/10 10:23:13;;;;;;;;;;;;;;;24.11;53.90;102701.69;4993893;28;19914;-59
2022/07/10 10:25:38;;;;;;;;;;;;;;;23.54;54.87;102715.59;4992791;28;20351;-59
2022/07/10 10:28:06;;;;;;;;;;;;;;;24.05;53.27;102712.00;4993692;28;19916;-60
2022/07/10 10:30:32;;;;;;;;;;;;;;;24.28;52.23;102704.00;4992300;28;19934;-60
2022/07/10 10:32:57;;;;;;;;;;;;;;;24.32;51.34;102710.06;4993751;28;19910;-59
2022/07/10 10:35:48;;;;;;;;;;;;;;;24.54;50.19;102712.00;4992452;28;19920;-60
2022/07/10 10:38:14;;;;;;;;;;;;;;;24.40;50.40;102707.66;4993672;28;19965;-59
2022/07/10 10:40:39;;;;;;;;;;;;;;;23.84;49.97;102706.25;4993299;28;19917;-60
2022/07/10 10:43:20;;;;;;;;;;;;;;;23.59;52.68;102701.72;4993617;28;19917;-59
2022/07/10 10:45:54;;;;;;;;;;;;;;;23.90;52.33;102699.50;5069120;28;19986;-60
2022/07/10 10:48:23;;;;;;;;;;;;;;;24.41;52.90;102694.97;5069166;28;20327;-58
2022/07/10 10:50:52;;;;;;;;;;;;;;;24.38;50.57;102687.94;5069021;28;20373;-60
2022/07/10 10:53:17;;;;;;;;;;;;;;;24.65;48.55;102700.41;5067724;28;19962;-60
2022/07/10 10:56:01;;;;;;;;;;;;;;;24.89;46.53;102704.97;5069162;28;19921;-59
2022/07/10 10:58:27;;;;;;;;;;;;;;;24.85;46.21;102702.47;5069020;28;20429;-59
2022/07/10 11:01:01;;;;;;;;;;;;;;;24.89;49.64;102708.53;5068748;28;20406;-59
2022/07/10 11:03:27;;;;;;;;;;;;;;;24.86;45.76;102704.19;5068611;28;19913;-59
2022/07/10 11:05:52;;;;;;;;;;;;;;;24.74;46.16;102702.41;5068697;28;20402;-59
2022/07/10 11:08:37;;;;;;;;;;;;;;;24.85;48.82;102702.47;5068875;28;19916;-59
2022/07/10 11:11:22;;;;;;;;;;;;;;;25.29;43.48;102696.44;5068684;28;19913;-59
2022/07/10 11:13:47;;;;;;;;;;;;;;;25.99;42.46;102699.94;5068607;28;19944;-59
2022/07/10 11:16:13;;;;;;;;;;;;;;;26.45;41.51;102687.16;5067281;28;20390;-59
2022/07/10 11:18:39;;;;;;;;;;;;;;;26.45;39.83;102671.72;5068444;28;19917;-60
2022/07/10 11:21:09;;;;;;;;;;;;;;;26.13;39.08;102682.56;5068546;28;19967;-59
2022/07/10 11:23:48;;;;;;;;;;;;;;;25.66;41.54;102688.97;5068375;28;19923;-60
2022/07/10 11:26:20;;;;;;;;;;;;;;;25.96;39.85;102692.91;5068599;28;20012;-60
2022/07/10 11:28:54;;;;;;;;;;;;;;;25.75;39.64;102675.66;5068287;28;19913;-60
2022/07/10 11:31:20;;;;;;;;;;;;;;;25.67;41.88;102673.56;5068230;28;19916;-60
2022/07/10 11:33:48;;;;;;;;;;;;;;;26.01;40.16;102666.25;5068425;28;19962;-60
2022/07/10 11:36:17;;;;;;;;;;;;;;;26.55;37.89;102670.91;5068303;28;19913;-60
2022/07/10 11:38:43;;;;;;;;;;;;;;;26.31;37.58;102664.72;5068174;28;19956;-59
2022/07/10 11:41:15;;;;;;;;;;;;;;;26.14;39.42;102670.72;5066889;28;19963;-59
2022/07/10 11:43:47;;;;;;;;;;;;;;;26.59;37.19;102665.09;5069712;28;19913;-59
2022/07/10 11:46:14;;;;;;;;;;;;;;;26.47;36.44;102672.44;5088284;28;19946;-59
2022/07/10 11:48:40;;;;;;;;;;;;;;;25.94;37.45;102661.44;5088142;28;19920;-59
2022/07/10 11:51:15;;;;;;;;;;;;;;;25.91;38.30;102665.28;5070303;28;20066;-60
2022/07/10 11:53:52;;;;;;;;;;;;;;;26.07;37.72;102664.06;5088010;28;19913;-60
2022/07/10 11:56:18;;;;;;;;;;;;;;;26.29;37.84;102660.41;5080229;28;19912;-59
2022/07/10 11:58:43;;;;;;;;;;;;;;;26.14;36.98;102668.00;5056721;28;19913;-59
2022/07/10 12:01:14;;;;;;;;;;;;;;;26.13;37.44;102671.69;5056664;28;20288;-60
2022/07/10 12:03:40;;;;;;;;;;;;;;;26.66;36.29;102673.59;5057175;28;19917;-59
2022/07/10 12:06:06;;;;;;;;;;;;;;;26.19;38.56;102663.03;5074403;28;19927;-59
2022/07/10 12:08:42;;;;;;;;;;;;;;;26.27;38.69;102655.09;5056263;28;19951;-58
2022/07/10 12:11:18;;;;;;;;;;;;;;;26.08;39.30;102652.22;5074280;28;20311;-60
2022/07/10 12:13:47;;;;;;;;;;;;;;;26.72;38.31;102661.34;5074139;28;20229;-59
2022/07/10 12:16:13;;;;;;;;;;;;;;;26.64;38.65;102664.72;5074355;28;19912;-59
2022/07/10 12:18:40;;;;;;;;;;;;;;;26.59;38.68;102666.97;5074041;28;19996;-59
2022/07/10 12:21:06;;;;;;;;;;;;;;;26.47;41.40;102675.16;5073894;28;19970;-59
2022/07/10 12:23:32;;;;;;;;;;;;;;;26.76;38.59;102671.00;5074056;28;19916;-59
2022/07/10 12:25:57;;;;;;;;;;;;;;;26.79;37.54;102671.59;5074034;28;20380;-59
2022/07/10 12:28:23;;;;;;;;;;;;;;;26.76;37.27;102662.84;5073847;28;19913;-59
2022/07/10 12:30:51;;;;;;;;;;;;;;;26.66;37.93;102670.88;5074008;28;20342;-59
2022/07/10 12:33:20;;;;;;;;;;;;;;;26.78;38.35;102653.56;5074008;28;19965;-59
2022/07/10 12:35:56;;;;;;;;;;;;;;;26.90;37.76;102669.81;5073910;28;19917;-59
2022/07/10 12:38:21;;;;;;;;;;;;;;;26.91;38.04;102669.69;5073656;28;19913;-59
2022/07/10 12:40:47;;;;;;;;;;;;;;;27.09;37.31;102669.09;5073890;28;19995;-59